Time;durP1;ratioP1;P1;durP2;ratioP2;P2;SDS_P1;SDS_P2;PMS_P1;PMS_P2;Temp;Humidity;BMP_temperature;BMP_pressure;BME280_temperature;BME280_humidity;BME280_pressure;Samples;Min_cycle;Max_cycle;Signal;HPM_P1;HPM_P2
2022/05/16 00:00:27;;;;;;;20.17;4.20;;;;;;;17.08;53.28;101571.59;2080686;28;20416;-67
2022/05/16 00:01:28;;;;;;;12.93;3.50;;;;;;;16.98;51.75;101555.19;2080498;28;20180;-67
2022/05/16 00:02:28;;;;;;;6.50;2.20;;;;;;;17.00;50.98;101567.50;2080565;28;20848;-67
2022/05/16 00:03:29;;;;;;;4.37;1.90;;;;;;;17.00;48.64;101561.91;2079325;28;20431;-67
2022/05/16 00:04:30;;;;;;;4.87;1.90;;;;;;;16.63;48.04;101510.41;2079298;28;20177;-67
2022/05/16 00:05:31;;;;;;;9.93;2.80;;;;;;;17.02;49.52;101557.41;2080580;28;20173;-67
2022/05/16 00:06:31;;;;;;;17.80;3.77;;;;;;;16.91;51.45;101528.97;2080467;28;20449;-67
2022/05/16 00:07:32;;;;;;;20.47;4.43;;;;;;;17.12;52.11;101567.41;2080586;28;20418;-67
2022/05/16 00:08:33;;;;;;;8.17;2.67;;;;;;;16.66;50.06;101503.09;2080507;28;20196;-67
2022/05/16 00:09:34;;;;;;;21.13;4.93;;;;;;;17.09;50.66;101565.56;2080243;28;20267;-67
2022/05/16 00:10:34;;;;;;;23.00;4.67;;;;;;;17.13;51.77;101568.22;2080604;28;20647;-67
2022/05/16 00:11:35;;;;;;;19.60;4.00;;;;;;;16.09;51.88;101389.56;2080602;28;20662;-67
2022/05/16 00:12:37;;;;;;;15.40;4.47;;;;;;;17.17;52.13;101558.44;2080343;28;20359;-67
2022/05/16 00:13:38;;;;;;;17.87;4.50;;;;;;;16.86;52.22;101523.19;2079380;28;20182;-67
2022/05/16 00:14:41;;;;;;;20.10;4.80;;;;;;;17.15;52.49;101557.34;2079150;28;20434;-67
2022/05/16 00:15:41;;;;;;;15.87;4.27;;;;;;;17.07;52.46;101558.84;2080416;28;20194;-67
2022/05/16 00:16:42;;;;;;;12.93;3.63;;;;;;;17.02;51.75;101559.41;2080375;28;20474;-67
2022/05/16 00:17:42;;;;;;;10.73;3.40;;;;;;;17.04;51.69;101554.94;2080473;28;20205;-67
2022/05/16 00:18:43;;;;;;;8.70;3.33;;;;;;;16.21;51.20;101430.69;2080297;28;20178;-67
2022/05/16 00:19:43;;;;;;;11.07;3.20;;;;;;;17.05;51.48;101558.53;2080355;28;20670;-67
2022/05/16 00:20:44;;;;;;;12.33;2.60;;;;;;;17.06;51.13;101558.03;2080360;28;20173;-67
2022/05/16 00:21:44;;;;;;;10.80;2.90;;;;;;;16.98;51.10;101544.00;2080705;28;20175;-67
2022/05/16 00:22:45;;;;;;;12.13;3.20;;;;;;;17.07;51.53;101553.25;2079801;28;20181;-67
2022/05/16 00:23:46;;;;;;;22.13;4.83;;;;;;;16.18;51.70;101417.59;2080172;28;20806;-67
2022/05/16 00:24:46;;;;;;;26.00;5.23;;;;;;;16.05;52.08;101388.13;2081201;28;20713;-67
2022/05/16 00:25:47;;;;;;;20.47;4.83;;;;;;;17.11;52.11;101559.50;2081823;28;20585;-67
2022/05/16 00:26:47;;;;;;;17.93;4.77;;;;;;;17.08;52.19;101543.59;2081895;28;20292;-67
2022/05/16 00:27:48;;;;;;;20.60;4.03;;;;;;;17.04;52.16;101559.72;2081815;28;20190;-67
2022/05/16 00:28:48;;;;;;;14.23;3.50;;;;;;;16.94;52.21;101556.09;2081915;28;20513;-67
2022/05/16 00:29:49;;;;;;;9.17;2.97;;;;;;;16.94;51.97;101550.50;2081803;28;20193;-67
2022/05/16 00:30:49;;;;;;;8.93;2.77;;;;;;;16.95;51.92;101560.44;2081735;28;20732;-67
2022/05/16 00:31:51;;;;;;;8.07;2.93;;;;;;;16.74;52.11;101527.59;2081978;28;20558;-67
2022/05/16 00:32:53;;;;;;;7.33;2.77;;;;;;;16.94;52.15;101555.28;2081082;28;20183;-67
2022/05/16 00:33:53;;;;;;;11.33;2.87;;;;;;;16.12;52.03;101424.22;2080741;28;20412;-67
2022/05/16 00:34:54;;;;;;;11.60;3.30;;;;;;;16.98;52.13;101555.19;2081142;28;21024;-67
2022/05/16 00:35:54;;;;;;;17.10;3.73;;;;;;;16.89;52.01;101551.06;2081829;28;20204;-67
2022/05/16 00:36:55;;;;;;;13.80;3.33;;;;;;;16.85;51.74;101556.00;2081808;28;20279;-67
2022/05/16 00:37:55;;;;;;;9.73;3.20;;;;;;;16.84;51.84;101559.25;2081498;28;20201;-67
2022/05/16 00:38:56;;;;;;;15.67;3.50;;;;;;;16.85;51.91;101575.59;2081350;28;20180;-67
2022/05/16 00:39:56;;;;;;;11.20;3.30;;;;;;;16.89;51.59;101559.47;2081574;28;20184;-67
2022/05/16 00:40:59;;;;;;;8.93;2.77;;;;;;;16.86;51.73;101549.16;2081907;28;20208;-67
2022/05/16 00:42:01;;;;;;;5.87;2.40;;;;;;;16.85;51.15;101561.59;2081729;28;20184;-67
2022/05/16 00:43:09;;;;;;;10.87;2.83;;;;;;;16.85;51.15;101558.03;2081055;28;20424;-67
2022/05/16 00:44:10;;;;;;;5.93;2.70;;;;;;;16.88;50.96;101555.09;2080662;28;20422;-67
2022/05/16 00:45:14;;;;;;;9.90;3.00;;;;;;;16.89;51.44;101553.88;2080953;28;20442;-67
2022/05/16 00:46:17;;;;;;;10.47;2.53;;;;;;;16.89;51.52;101553.88;2081804;28;20473;-67
2022/05/16 00:47:18;;;;;;;8.33;2.77;;;;;;;16.03;51.24;101433.28;2081702;28;20411;-67
2022/05/16 00:48:18;;;;;;;11.80;2.70;;;;;;;16.85;51.53;101558.78;2081195;28;20998;-67
2022/05/16 00:49:29;;;;;;;7.57;2.53;;;;;;;16.42;51.42;101496.34;2080812;28;20178;-67
2022/05/16 00:50:32;;;;;;;4.57;2.40;;;;;;;16.75;51.42;101543.16;2081858;28;20251;-67
2022/05/16 00:51:37;;;;;;;9.23;3.10;;;;;;;16.82;51.28;101567.31;2081845;28;20423;-67
2022/05/16 00:52:45;;;;;;;10.77;3.20;;;;;;;16.83;51.25;101562.53;2081635;28;20407;-67
2022/05/16 00:53:48;;;;;;;9.73;2.67;;;;;;;15.90;51.59;101421.38;2080876;28;20405;-67
2022/05/16 00:54:55;;;;;;;8.47;2.63;;;;;;;15.96;51.74;101433.53;2080978;28;20520;-67
2022/05/16 00:55:55;;;;;;;7.83;2.80;;;;;;;16.73;51.92;101556.81;2081642;28;20451;-67
2022/05/16 00:57:00;;;;;;;11.57;2.93;;;;;;;16.73;51.82;101556.81;2081700;28;20424;-67
2022/05/16 00:58:12;;;;;;;10.07;2.77;;;;;;;16.74;51.96;101554.78;2080863;28;20260;-67
2022/05/16 00:59:13;;;;;;;8.37;2.70;;;;;;;16.06;51.90;101454.78;2081099;28;20480;-67
2022/05/16 01:00:27;;;;;;;7.40;2.60;;;;;;;16.73;52.27;101555.28;2081696;28;20588;-67
2022/05/16 01:05:30;;;;;;;5.27;2.33;;;;;;;16.57;53.22;101558.22;2081620;28;20418;-67
2022/05/16 01:06:30;;;;;;;6.10;2.40;;;;;;;16.55;53.89;101553.84;2081610;28;20414;-67
2022/05/16 01:07:35;;;;;;;5.07;2.40;;;;;;;15.59;54.12;101414.81;2081478;28;20563;-67
2022/05/16 01:08:39;;;;;;;7.33;2.63;;;;;;;16.36;55.52;101546.47;2080867;28;20194;-67
2022/05/16 01:09:40;;;;;;;4.87;2.50;;;;;;;16.15;56.47;101522.00;2080687;28;20493;-67
2022/05/16 01:10:41;;;;;;;8.73;3.30;;;;;;;15.96;57.32;101503.44;2081572;28;20414;-67
2022/05/16 01:11:42;;;;;;;4.47;2.63;;;;;;;15.94;58.07;101491.13;2081704;28;20210;-67
2022/05/16 01:12:46;;;;;;;6.97;2.83;;;;;;;16.38;58.26;101557.19;2080993;28;20417;-67
2022/05/16 01:13:47;;;;;;;8.27;3.10;;;;;;;15.38;58.59;101393.09;2079901;28;20191;-67
2022/05/16 01:14:53;;;;;;;6.17;2.80;;;;;;;16.39;58.99;101562.38;2080136;28;20495;-67
2022/05/16 01:15:54;;;;;;;6.80;2.90;;;;;;;16.42;59.02;101566.28;2081413;28;20721;-67
2022/05/16 01:16:55;;;;;;;5.17;3.00;;;;;;;16.43;58.92;101559.44;2081481;28;20821;-66
2022/05/16 01:17:55;;;;;;;5.97;2.97;;;;;;;16.29;58.92;101545.91;2081519;28;20418;-66
2022/05/16 01:18:56;;;;;;;5.57;3.00;;;;;;;16.32;59.68;101562.59;2081510;28;20173;-67
2022/05/16 01:19:56;;;;;;;5.57;3.20;;;;;;;16.28;60.17;101561.91;2081444;28;20332;-67
2022/05/16 01:21:04;;;;;;;5.60;2.77;;;;;;;16.24;60.62;101555.63;2081487;28;20564;-67
2022/05/16 01:22:08;;;;;;;10.40;3.40;;;;;;;16.15;61.11;101580.72;2081289;28;20160;-66
2022/05/16 01:23:14;;;;;;;6.77;3.20;;;;;;;16.21;61.30;101561.34;2080534;28;20483;-67
2022/05/16 01:24:18;;;;;;;7.93;3.30;;;;;;;16.25;61.39;101564.81;2080583;28;20463;-67
2022/05/16 01:25:28;;;;;;;6.30;3.27;;;;;;;16.13;61.52;101554.44;2081037;28;20435;-66
2022/05/16 01:26:29;;;;;;;6.30;3.07;;;;;;;16.24;61.10;101564.03;2081480;28;20422;-67
2022/05/16 01:27:43;;;;;;;5.60;3.40;;;;;;;16.24;60.95;101564.03;2081474;28;20461;-67
2022/05/16 01:28:44;;;;;;;6.30;3.10;;;;;;;16.18;61.20;101560.22;2081500;28;20413;-66
2022/05/16 01:29:44;;;;;;;6.07;3.27;;;;;;;16.14;60.75;101553.97;2081295;28;20433;-67
2022/05/16 01:30:47;;;;;;;5.53;3.20;;;;;;;16.20;60.69;101559.78;2081352;28;20194;-66
2022/05/16 01:31:47;;;;;;;5.07;3.17;;;;;;;16.17;60.30;101564.25;2080815;28;20182;-66
2022/05/16 01:32:48;;;;;;;6.10;3.40;;;;;;;16.09;60.61;101562.91;2080042;28;20418;-67
2022/05/16 01:33:50;;;;;;;6.57;3.27;;;;;;;16.10;60.47;101563.72;2080325;28;20216;-66
2022/05/16 01:34:50;;;;;;;7.57;3.33;;;;;;;16.09;60.47;101562.16;2080701;28;21027;-66
2022/05/16 01:35:52;;;;;;;5.87;3.00;;;;;;;16.02;60.40;101551.97;2081456;28;20809;-66
2022/05/16 01:36:52;;;;;;;3.83;2.83;;;;;;;16.12;59.96;101566.84;2081430;28;20556;-67
2022/05/16 01:39:12;;;;;;;3.97;2.93;;;;;;;14.89;59.87;101383.44;2081309;28;20554;-66
2022/05/16 01:40:12;;;;;;;6.50;3.40;;;;;;;16.07;60.03;101559.00;2081156;28;20432;-66
2022/05/16 01:41:19;;;;;;;5.93;2.77;;;;;;;16.09;60.00;101562.91;2081453;28;20187;-66
2022/05/16 01:42:20;;;;;;;4.57;3.00;;;;;;;16.11;60.01;101562.47;2081445;28;20191;-66
2022/05/16 01:43:23;;;;;;;4.77;2.67;;;;;;;15.72;60.11;101502.19;2080500;28;20510;-66
2022/05/16 01:44:24;;;;;;;6.60;2.90;;;;;;;16.08;60.11;101564.16;2080021;28;20669;-66
2022/05/16 01:45:24;;;;;;;5.27;2.80;;;;;;;16.03;60.08;101556.31;2081061;28;20939;-67
2022/05/16 01:46:32;;;;;;;5.20;3.00;;;;;;;16.03;60.29;101563.94;2081298;28;20267;-66
2022/05/16 01:47:33;;;;;;;5.00;2.80;;;;;;;16.00;60.55;101565.63;2081349;28;20229;-67
2022/05/16 01:48:34;;;;;;;5.83;2.87;;;;;;;14.73;60.54;101389.09;2081157;28;20423;-66
2022/05/16 01:49:35;;;;;;;6.87;3.10;;;;;;;15.79;60.93;101565.47;2081152;28;20722;-66
2022/05/16 01:50:36;;;;;;;7.13;3.40;;;;;;;15.65;60.96;101563.91;2081268;28;20463;-66
2022/05/16 01:51:36;;;;;;;4.83;2.97;;;;;;;15.46;60.87;101516.56;2081239;28;20216;-66
2022/05/16 01:52:37;;;;;;;4.63;2.90;;;;;;;15.84;61.22;101576.88;2080378;28;20436;-66
2022/05/16 01:53:39;;;;;;;4.57;3.10;;;;;;;15.84;61.16;101579.66;2079506;28;20180;-66
2022/05/16 01:54:40;;;;;;;6.57;3.07;;;;;;;15.29;60.18;101499.09;2080203;28;20251;-66
2022/05/16 01:55:40;;;;;;;9.33;3.07;;;;;;;15.93;60.38;101579.03;2081256;28;20516;-66
2022/05/16 01:56:41;;;;;;;6.30;2.80;;;;;;;15.89;60.14;101565.13;2081221;28;20227;-66
2022/05/16 01:57:42;;;;;;;8.07;2.83;;;;;;;15.92;60.00;101583.03;2081229;28;20210;-66
2022/05/16 01:58:44;;;;;;;7.60;2.63;;;;;;;15.12;60.37;101457.72;2081279;28;20597;-66
2022/05/16 01:59:44;;;;;;;8.63;3.00;;;;;;;15.91;60.40;101575.88;2080545;28;20598;-66
2022/05/16 02:00:45;;;;;;;5.80;3.00;;;;;;;15.90;60.35;101577.91;2080539;28;20488;-67
2022/05/16 02:01:45;;;;;;;4.83;2.83;;;;;;;15.96;60.44;101581.72;2081195;28;20616;-66
2022/05/16 02:02:46;;;;;;;4.80;2.70;;;;;;;15.99;60.38;101574.44;2080640;28;20178;-66
2022/05/16 02:03:47;;;;;;;4.40;2.90;;;;;;;16.04;59.68;101585.84;2079992;28;20650;-66
2022/05/16 02:04:48;;;;;;;4.80;2.67;;;;;;;16.09;59.86;101576.13;2079790;28;20181;-66
2022/05/16 02:05:49;;;;;;;5.87;2.97;;;;;;;16.12;59.54;101573.22;2080557;28;20410;-66
2022/05/16 02:06:49;;;;;;;5.93;3.00;;;;;;;16.14;59.44;101576.34;2080899;28;20575;-66
2022/05/16 02:07:50;;;;;;;10.20;2.77;;;;;;;16.15;59.35;101577.13;2081212;28;20664;-66
2022/05/16 02:08:51;;;;;;;10.60;3.30;;;;;;;16.17;59.37;101581.06;2081161;28;20180;-66
2022/05/16 02:09:51;;;;;;;9.27;3.10;;;;;;;16.22;58.91;101574.09;2080900;28;20177;-66
2022/05/16 02:10:52;;;;;;;8.27;3.07;;;;;;;16.26;58.75;101583.97;2081066;28;20625;-66
2022/05/16 02:11:52;;;;;;;9.33;3.03;;;;;;;16.27;58.08;101577.13;2080541;28;20270;-66
2022/05/16 02:12:56;;;;;;;9.37;3.23;;;;;;;16.13;57.33;101576.81;2079697;28;20185;-67
2022/05/16 02:13:57;;;;;;;6.07;2.70;;;;;;;16.27;58.35;101579.13;2079826;28;20260;-66
2022/05/16 02:14:58;;;;;;;6.87;2.40;;;;;;;15.68;56.43;101486.78;2080378;28;20468;-66
2022/05/16 02:15:59;;;;;;;5.13;2.80;;;;;;;16.06;56.27;101549.06;2080912;28;20178;-66
2022/05/16 02:16:59;;;;;;;6.83;2.50;;;;;;;16.28;55.71;101577.91;2081200;28;20771;-66
2022/05/16 02:18:00;;;;;;;4.93;2.70;;;;;;;16.19;55.60;101581.38;2080900;28;20856;-66
2022/05/16 02:19:01;;;;;;;5.83;2.33;;;;;;;16.29;57.12;101583.03;2080945;28;20180;-66
2022/05/16 02:20:01;;;;;;;11.53;3.43;;;;;;;15.67;57.31;101480.41;2080975;28;20419;-66
2022/05/16 02:25:01;;;;;;;14.83;4.00;;;;;;;16.32;56.93;101572.97;2072417;28;20397;-66
2022/05/16 02:26:01;;;;;;;14.70;4.03;;;;;;;16.33;57.18;101571.75;2072767;28;20424;-66
2022/05/16 02:27:02;;;;;;;19.10;4.17;;;;;;;16.33;56.45;101569.75;2072973;28;20178;-66
2022/05/16 02:28:04;;;;;;;27.00;5.20;;;;;;;16.28;56.57;101559.09;2072556;28;20257;-66
2022/05/16 02:29:05;;;;;;;28.50;5.23;;;;;;;14.81;56.49;101333.84;2072820;28;20181;-66
2022/05/16 02:30:07;;;;;;;13.07;3.00;;;;;;;16.34;55.32;101576.13;2072847;28;20448;-66
2022/05/16 02:31:07;;;;;;;16.73;3.00;;;;;;;16.36;53.10;101582.03;2072814;28;20181;-66
2022/05/16 02:32:08;;;;;;;11.40;3.57;;;;;;;16.29;53.24;101573.88;2072825;28;20591;-66
2022/05/16 02:33:11;;;;;;;9.63;3.43;;;;;;;16.26;53.90;101574.78;2072116;28;20182;-67
2022/05/16 02:34:11;;;;;;;8.20;2.83;;;;;;;16.01;52.53;101532.84;2071556;28;20416;-66
2022/05/16 02:35:12;;;;;;;6.50;2.63;;;;;;;16.17;51.85;101569.88;2072245;28;20474;-66
2022/05/16 02:36:13;;;;;;;5.47;2.47;;;;;;;16.15;51.64;101563.94;2072736;28;20263;-66
2022/05/16 02:37:13;;;;;;;7.23;2.40;;;;;;;16.18;51.06;101568.63;2072874;28;20661;-66
2022/05/16 02:38:16;;;;;;;4.20;2.10;;;;;;;16.15;51.16;101569.53;2072728;28;20436;-66
2022/05/16 02:39:17;;;;;;;6.57;2.27;;;;;;;16.16;51.57;101561.91;2072498;28;20190;-66
2022/05/16 02:40:17;;;;;;;6.33;2.67;;;;;;;16.20;51.78;101562.59;2072720;28;20417;-66
2022/05/16 02:41:18;;;;;;;7.53;2.33;;;;;;;14.96;52.20;101366.47;2072692;28;20598;-67
2022/05/16 02:42:18;;;;;;;8.83;2.60;;;;;;;15.51;51.87;101458.16;2072834;28;20176;-66
2022/05/16 02:43:19;;;;;;;8.40;2.30;;;;;;;16.26;52.07;101563.59;2071957;28;20631;-66
2022/05/16 02:44:19;;;;;;;7.97;2.57;;;;;;;16.27;51.90;101562.34;2071224;28;20615;-66
2022/05/16 02:45:21;;;;;;;9.47;2.77;;;;;;;16.30;52.25;101559.44;2072287;28;20183;-66
2022/05/16 02:46:21;;;;;;;9.17;2.70;;;;;;;16.30;52.09;101565.03;2071308;28;20308;-67
2022/05/16 02:47:23;;;;;;;9.77;2.50;;;;;;;15.24;52.08;101396.31;2072066;28;20783;-66
2022/05/16 02:48:23;;;;;;;8.87;2.50;;;;;;;16.27;52.29;101568.75;2072699;28;20690;-66
2022/05/16 02:49:26;;;;;;;4.97;2.20;;;;;;;16.25;51.90;101567.63;2072262;28;20876;-66
2022/05/16 02:50:27;;;;;;;7.03;2.60;;;;;;;16.17;51.89;101564.25;2072791;28;20188;-67
2022/05/16 02:51:27;;;;;;;5.70;2.30;;;;;;;16.12;51.54;101556.44;2072688;28;20432;-66
2022/05/16 02:52:27;;;;;;;6.90;2.33;;;;;;;16.21;51.70;101561.34;2072601;28;20244;-66
2022/05/16 02:53:28;;;;;;;6.90;2.17;;;;;;;16.22;51.59;101571.31;2071250;28;20189;-67
2022/05/16 02:54:28;;;;;;;4.07;2.20;;;;;;;16.15;51.30;101569.53;2071753;28;20655;-66
2022/05/16 02:55:31;;;;;;;4.83;1.80;;;;;;;16.14;51.74;101572.78;2072439;28;20215;-66
2022/05/16 02:56:33;;;;;;;5.10;2.07;;;;;;;15.93;50.61;101546.25;2072538;28;20593;-66
2022/05/16 02:57:34;;;;;;;3.90;2.10;;;;;;;16.14;50.46;101581.16;2072700;28;20419;-66
2022/05/16 02:58:34;;;;;;;4.87;2.10;;;;;;;16.17;50.67;101583.03;2072714;28;20915;-66
2022/05/16 02:59:36;;;;;;;7.70;2.17;;;;;;;16.13;50.46;101590.78;2072482;28;20182;-66
2022/05/16 03:00:38;;;;;;;9.60;2.30;;;;;;;16.05;50.92;101572.66;2080404;28;20224;-66
2022/05/16 03:01:38;;;;;;;12.17;2.20;;;;;;;15.93;50.62;101554.63;2080236;28;20484;-66
2022/05/16 03:02:40;;;;;;;5.60;2.30;;;;;;;16.01;50.58;101564.38;2080058;28;20508;-66
2022/05/16 03:03:41;;;;;;;6.60;2.70;;;;;;;16.24;50.10;101588.44;2079041;28;20218;-66
2022/05/16 03:04:41;;;;;;;11.67;2.40;;;;;;;16.17;50.16;101585.84;2079013;28;20480;-66
2022/05/16 03:05:41;;;;;;;8.37;2.57;;;;;;;16.02;50.62;101565.94;2080853;28;20177;-66
2022/05/16 03:06:42;;;;;;;9.10;2.40;;;;;;;15.72;50.45;101530.13;2080792;28;20181;-66
2022/05/16 03:07:43;;;;;;;8.17;2.30;;;;;;;16.14;51.23;101586.75;2080843;28;20184;-66
2022/05/16 03:08:44;;;;;;;9.67;2.53;;;;;;;16.18;51.20;101590.22;2080746;28;20173;-66
2022/05/16 03:09:46;;;;;;;8.77;2.80;;;;;;;16.11;51.42;101576.44;2080492;28;20933;-66
2022/05/16 03:10:47;;;;;;;6.80;2.10;;;;;;;15.88;51.46;101544.00;2080701;28;20927;-66
2022/05/16 03:11:48;;;;;;;10.67;2.90;;;;;;;15.50;51.62;101487.31;2080797;28;21042;-66
2022/05/16 03:12:49;;;;;;;7.80;2.50;;;;;;;16.27;50.29;101590.31;2079943;28;20211;-66
2022/05/16 03:13:49;;;;;;;5.00;2.30;;;;;;;16.35;50.08;101588.88;2079585;28;20199;-66
2022/05/16 03:14:50;;;;;;;5.70;2.57;;;;;;;16.32;49.68;101590.56;2080126;28;20266;-66
2022/05/16 03:15:51;;;;;;;5.70;2.53;;;;;;;16.30;49.90;101586.63;2080388;28;20180;-66
2022/05/16 03:16:51;;;;;;;8.33;2.53;;;;;;;16.17;50.02;101569.88;2080613;28;20246;-66
2022/05/16 03:17:52;;;;;;;5.27;2.40;;;;;;;16.30;49.99;101590.19;2080740;28;20264;-66
2022/05/16 03:18:53;;;;;;;6.30;2.40;;;;;;;16.28;49.63;101598.28;2080611;28;20239;-66
2022/05/16 03:19:53;;;;;;;6.33;2.23;;;;;;;16.27;49.96;101587.53;2080546;28;20177;-66
2022/05/16 03:20:54;;;;;;;5.07;2.00;;;;;;;16.24;49.91;101583.59;2080664;28;20184;-66
2022/05/16 03:21:54;;;;;;;5.70;2.37;;;;;;;16.25;49.86;101590.75;2080529;28;20181;-66
2022/05/16 03:22:55;;;;;;;7.97;2.37;;;;;;;16.25;49.82;101587.19;2079089;28;20216;-66
2022/05/16 03:23:56;;;;;;;6.70;2.43;;;;;;;16.27;49.76;101591.13;2078919;28;20231;-66
2022/05/16 03:24:57;;;;;;;4.90;2.23;;;;;;;16.30;49.55;101598.59;2080017;28;20181;-66
2022/05/16 03:25:58;;;;;;;5.17;2.13;;;;;;;16.25;50.08;101590.00;2080532;28;20428;-66
2022/05/16 03:26:59;;;;;;;5.93;2.10;;;;;;;16.08;49.43;101561.34;2080821;28;20184;-66
2022/05/16 03:27:59;;;;;;;7.23;2.50;;;;;;;16.26;49.98;101597.94;2080536;28;20604;-66
2022/05/16 03:29:00;;;;;;;4.50;2.30;;;;;;;16.25;49.93;101595.59;2080574;28;20185;-66
2022/05/16 03:30:00;;;;;;;5.63;2.30;;;;;;;16.29;49.47;101591.44;2080674;28;20188;-66
2022/05/16 03:31:01;;;;;;;4.87;2.20;;;;;;;15.68;49.45;101495.16;2080715;28;20219;-66
2022/05/16 03:32:02;;;;;;;5.90;2.30;;;;;;;16.32;49.50;101595.34;2080413;28;20185;-66
2022/05/16 03:33:03;;;;;;;7.47;2.10;;;;;;;16.29;49.45;101597.03;2079929;28;20181;-66
2022/05/16 03:34:04;;;;;;;5.17;2.23;;;;;;;16.17;49.94;101577.47;2079464;28;20543;-66
2022/05/16 03:35:06;;;;;;;5.33;2.30;;;;;;;16.31;50.42;101600.19;2080113;28;20598;-66
2022/05/16 03:36:07;;;;;;;7.17;2.50;;;;;;;16.06;50.78;101560.22;2079854;28;20196;-66
2022/05/16 03:37:07;;;;;;;5.43;2.40;;;;;;;16.38;50.47;101599.16;2071776;28;20436;-66
2022/05/16 03:38:08;;;;;;;4.80;2.30;;;;;;;16.42;50.84;101602.66;2079884;28;20419;-66
2022/05/16 03:40:42;;;;;;;4.73;2.40;;;;;;;16.51;51.30;101608.38;2080678;28;20172;-66
2022/05/16 03:41:43;;;;;;;8.30;2.60;;;;;;;16.52;51.37;101610.72;2080727;28;20939;-66
2022/05/16 03:42:43;;;;;;;6.17;2.27;;;;;;;16.52;51.46;101614.75;2080179;28;20983;-66
2022/05/16 03:43:44;;;;;;;5.97;2.57;;;;;;;16.53;51.04;101608.69;2079718;28;20193;-66
2022/05/16 03:44:45;;;;;;;6.23;2.20;;;;;;;16.58;50.20;101605.31;2079753;28;20192;-66
2022/05/16 03:45:45;;;;;;;5.93;2.30;;;;;;;16.58;50.63;101615.75;2080317;28;20238;-66
2022/05/16 03:46:46;;;;;;;6.43;2.40;;;;;;;16.40;51.27;101591.13;2080498;28;20182;-66
2022/05/16 03:47:47;;;;;;;6.37;2.40;;;;;;;16.61;50.47;101612.81;2080688;28;20190;-66
2022/05/16 03:48:47;;;;;;;6.83;2.03;;;;;;;16.64;49.47;101612.69;2080563;28;20197;-66
2022/05/16 03:49:48;;;;;;;6.80;2.40;;;;;;;16.69;49.99;101619.75;2080418;28;20575;-66
2022/05/16 03:50:48;;;;;;;9.77;2.67;;;;;;;16.71;50.53;101615.25;2080578;28;20561;-66
2022/05/16 03:51:49;;;;;;;4.67;2.10;;;;;;;16.73;49.46;101618.41;2080569;28;20176;-66
2022/05/16 03:52:49;;;;;;;5.90;2.00;;;;;;;16.00;49.54;101509.69;2079718;28;20666;-66
2022/05/16 03:53:50;;;;;;;8.70;2.13;;;;;;;16.67;50.21;101613.81;2079533;28;20187;-66
2022/05/16 03:54:50;;;;;;;7.57;2.33;;;;;;;16.82;49.13;101623.31;2079141;28;20250;-66
2022/05/16 03:55:51;;;;;;;10.43;2.30;;;;;;;16.71;49.37;101604.06;2079576;28;20188;-66
2022/05/16 03:56:51;;;;;;;7.43;2.10;;;;;;;16.86;48.97;101621.94;2078733;28;20499;-65
2022/05/16 03:57:52;;;;;;;5.37;2.10;;;;;;;16.34;48.88;101539.75;2080222;28;20183;-64
2022/05/16 03:58:54;;;;;;;9.73;2.50;;;;;;;16.16;49.19;101531.94;2081553;28;20186;-65
2022/05/16 03:59:54;;;;;;;6.07;2.20;;;;;;;16.88;49.00;101622.28;2081882;28;20195;-65
2022/05/16 04:00:55;;;;;;;3.70;2.17;;;;;;;16.86;49.12;101629.59;2081601;28;20420;-65
2022/05/16 04:01:56;;;;;;;7.30;2.27;;;;;;;16.88;49.67;101625.09;2082121;28;20214;-65
2022/05/16 04:02:56;;;;;;;10.97;2.93;;;;;;;16.94;49.10;101628.09;2081477;28;20188;-65
2022/05/16 04:03:57;;;;;;;5.23;2.10;;;;;;;16.00;48.95;101483.75;2080782;28;20176;-65
2022/05/16 04:04:57;;;;;;;4.60;2.60;;;;;;;16.90;48.95;101633.81;2081394;28;20189;-65
2022/05/16 04:05:58;;;;;;;6.27;2.40;;;;;;;16.89;49.50;101631.47;2081998;28;20189;-65
2022/05/16 04:06:58;;;;;;;5.43;2.30;;;;;;;16.92;49.08;101630.56;2080967;28;20184;-65
2022/05/16 04:07:59;;;;;;;7.73;2.90;;;;;;;16.71;49.26;101603.28;2081874;28;20183;-65
2022/05/16 04:09:00;;;;;;;9.80;2.90;;;;;;;16.89;49.90;101634.25;2081855;28;20187;-65
2022/05/16 04:10:01;;;;;;;6.33;2.50;;;;;;;16.08;49.81;101505.44;2081824;28;20260;-65
2022/05/16 04:11:03;;;;;;;5.37;2.40;;;;;;;16.99;49.57;101633.13;2082022;28;20419;-65
2022/05/16 04:12:04;;;;;;;4.87;2.43;;;;;;;16.09;49.62;101507.00;2081894;28;20781;-65
2022/05/16 04:13:05;;;;;;;5.17;2.30;;;;;;;16.86;49.50;101633.16;2081170;28;20460;-65
2022/05/16 04:14:05;;;;;;;5.67;2.30;;;;;;;16.89;50.05;101625.88;2080847;28;20417;-65
2022/05/16 04:15:07;;;;;;;7.40;2.33;;;;;;;16.31;49.37;101552.63;2081316;28;20215;-65
2022/05/16 04:16:07;;;;;;;5.70;2.47;;;;;;;16.94;49.08;101642.09;2081548;28;20598;-65
2022/05/16 04:17:08;;;;;;;4.80;2.30;;;;;;;17.00;49.47;101640.31;2081415;28;20431;-65
2022/05/16 04:18:08;;;;;;;7.47;2.87;;;;;;;17.01;49.28;101644.66;2081552;28;20257;-65
2022/05/16 04:19:09;;;;;;;5.00;2.50;;;;;;;16.03;49.59;101488.44;2081689;28;20258;-65
2022/05/16 04:20:11;;;;;;;6.67;2.13;;;;;;;17.03;49.67;101642.97;2081922;28;20174;-65
2022/05/16 04:21:12;;;;;;;6.03;2.30;;;;;;;17.04;49.78;101643.75;2081016;28;20794;-65
2022/05/16 04:22:13;;;;;;;7.90;2.30;;;;;;;17.04;49.71;101650.16;2081648;28;20420;-65
2022/05/16 04:23:13;;;;;;;6.13;2.43;;;;;;;17.06;49.87;101652.50;2080878;28;20471;-65
2022/05/16 04:24:14;;;;;;;4.13;2.10;;;;;;;16.76;50.38;101588.72;2080767;28;20229;-65
2022/05/16 04:25:16;;;;;;;4.70;2.27;;;;;;;16.26;49.76;101519.63;2081017;28;20662;-65
2022/05/16 04:26:17;;;;;;;6.30;2.10;;;;;;;17.21;49.94;101651.53;2081504;28;20627;-66
2022/05/16 04:27:18;;;;;;;4.80;2.10;;;;;;;17.30;49.55;101648.81;2081781;28;20516;-65
2022/05/16 04:28:18;;;;;;;5.43;2.40;;;;;;;17.33;49.84;101655.53;2081187;28;20196;-65
2022/05/16 04:29:19;;;;;;;4.20;2.40;;;;;;;17.34;49.49;101654.31;2081431;28;20175;-66
2022/05/16 04:30:19;;;;;;;4.57;2.07;;;;;;;17.40;49.45;101651.75;2077960;28;20200;-66
2022/05/16 04:31:20;;;;;;;7.33;2.03;;;;;;;17.42;49.23;101653.63;2080128;28;20203;-66
2022/05/16 04:32:20;;;;;;;8.97;2.40;;;;;;;17.42;49.38;101646.47;2081149;28;20676;-66
2022/05/16 04:33:21;;;;;;;5.10;2.27;;;;;;;16.98;48.91;101603.56;2080320;28;20187;-66
2022/05/16 04:34:21;;;;;;;4.47;2.03;;;;;;;17.17;49.13;101606.06;2079821;28;20220;-66
2022/05/16 04:35:22;;;;;;;6.10;2.30;;;;;;;17.38;49.04;101638.16;2080840;28;20230;-66
2022/05/16 04:36:22;;;;;;;9.00;2.20;;;;;;;17.36;49.31;101641.41;2080567;28;20238;-66
2022/05/16 04:37:23;;;;;;;6.07;2.03;;;;;;;17.53;48.97;101658.84;2080591;28;20190;-66
2022/05/16 04:38:23;;;;;;;8.47;2.60;;;;;;;17.60;49.31;101664.19;2080705;28;20326;-66
2022/05/16 04:39:24;;;;;;;6.73;2.57;;;;;;;17.54;49.49;101646.41;2080801;28;20720;-66
2022/05/16 04:40:25;;;;;;;7.73;2.53;;;;;;;17.59;49.41;101662.63;2084058;28;20279;-65
2022/05/16 04:42:45;;;;;;;6.13;2.10;;;;;;;17.71;49.61;101664.59;2075758;28;20276;-65
2022/05/16 04:43:45;;;;;;;7.40;2.20;;;;;;;17.71;49.31;101658.97;2077544;28;20441;-65
2022/05/16 04:44:46;;;;;;;5.03;2.10;;;;;;;17.78;49.44;101664.34;2073395;28;20273;-65
2022/05/16 04:45:46;;;;;;;4.93;2.10;;;;;;;17.85;48.90;101666.13;2076510;28;20319;-65
2022/05/16 04:46:47;;;;;;;5.60;1.83;;;;;;;17.83;48.53;101672.16;2074835;28;20779;-65
2022/05/16 04:47:52;;;;;;;8.57;2.07;;;;;;;17.85;49.23;101664.06;2079317;28;20205;-65
2022/05/16 04:48:53;;;;;;;7.30;2.23;;;;;;;17.68;49.70;101645.91;2077865;28;20537;-65
2022/05/16 04:49:53;;;;;;;6.73;2.40;;;;;;;17.58;49.76;101627.44;2077901;28;20571;-65
2022/05/16 04:50:54;;;;;;;7.67;2.60;;;;;;;17.63;49.90;101627.63;2079867;28;20182;-65
2022/05/16 04:51:54;;;;;;;10.50;3.83;;;;;;;17.92;49.77;101665.84;2079092;28;20267;-65
2022/05/16 04:52:56;;;;;;;19.80;3.63;;;;;;;17.94;49.92;101664.13;2078042;28;20260;-65
2022/05/16 04:53:57;;;;;;;21.60;4.10;;;;;;;18.07;49.81;101681.66;2075681;28;20616;-65
2022/05/16 04:54:57;;;;;;;18.27;4.40;;;;;;;18.05;49.98;101650.50;2075576;28;20910;-65
2022/05/16 04:55:59;;;;;;;18.60;4.60;;;;;;;18.20;49.77;101679.56;2076927;28;20195;-65
2022/05/16 04:56:59;;;;;;;8.10;2.50;;;;;;;18.35;49.30;101669.38;2078746;28;20909;-65